Time;durP1;ratioP1;P1;durP2;ratioP2;P2;SDS_P1;SDS_P2;PMS_P1;PMS_P2;Temp;Humidity;BMP_temperature;BMP_pressure;BME280_temperature;BME280_humidity;BME280_pressure;Samples;Min_cycle;Max_cycle;Signal;HPM_P1;HPM_P2
2021/07/29 00:02:27;;;;;;;5.28;1.70;;;15.60;67.60;;;;;;5036644;27;97095;-67
2021/07/29 00:04:57;;;;;;;6.03;2.70;;;15.60;67.80;;;;;;5041811;27;95752;-67
2021/07/29 00:07:27;;;;;;;3.67;2.10;;;15.60;68.00;;;;;;5054906;27;95753;-64
2021/07/29 00:09:59;;;;;;;7.05;2.28;;;15.70;68.10;;;;;;5043028;27;95760;-64
2021/07/29 00:12:31;;;;;;;;;;;15.70;68.10;;;;;;5041439;27;96066;-64
2021/07/29 00:15:05;;;;;;;5.10;1.98;;;15.80;68.30;;;;;;5042252;27;95797;-63
2021/07/29 00:20:21;;;;;;;3.05;1.80;;;15.80;68.00;;;;;;5038450;27;96437;-64
2021/07/29 00:22:54;;;;;;;6.53;2.40;;;15.90;68.60;;;;;;5032548;27;96106;-62
2021/07/29 00:25:26;;;;;;;3.88;1.90;;;15.90;68.10;;;;;;5041132;27;96419;-64
2021/07/29 00:27:57;;;;;;;;;;;16.00;68.00;;;;;;5037889;27;99958;-62
2021/07/29 00:30:28;;;;;;;5.47;2.70;;;16.00;68.00;;;;;;5040236;27;96002;-62
2021/07/29 00:32:59;;;;;;;4.78;2.25;;;16.00;67.80;;;;;;5035707;27;101713;-63
2021/07/29 00:35:29;;;;;;;6.93;1.73;;;16.10;68.10;;;;;;5039743;27;95864;-60
2021/07/29 00:38:02;;;;;;;3.70;1.83;;;16.10;67.70;;;;;;5038134;27;96322;-62
2021/07/29 00:40:32;;;;;;;2.47;1.55;;;16.20;67.40;;;;;;5039844;27;96451;-62
2021/07/29 00:43:02;;;;;;;4.63;2.08;;;16.20;67.40;;;;;;5037008;27;95763;-62
2021/07/29 00:45:32;;;;;;;3.70;1.80;;;16.20;67.30;;;;;;5037317;27;95626;-62
2021/07/29 00:48:02;;;;;;;5.55;2.15;;;16.20;67.20;;;;;;5042999;27;96798;-64
2021/07/29 00:50:39;;;;;;;3.38;2.13;;;16.20;67.60;;;;;;5044913;27;96471;-67
2021/07/29 00:53:13;;;;;;;6.40;2.53;;;16.20;67.80;;;;;;5043443;27;96332;-64
2021/07/29 00:55:45;;;;;;;2.90;1.73;;;16.30;67.80;;;;;;5043791;27;96516;-64
2021/07/29 00:58:17;;;;;;;10.88;2.33;;;16.30;68.00;;;;;;5037446;27;95690;-62
2021/07/29 01:00:51;;;;;;;6.03;2.30;;;16.40;68.00;;;;;;5040543;27;96010;-62
2021/07/29 01:03:21;;;;;;;3.30;1.95;;;16.40;68.00;;;;;;5040719;27;95488;-61
2021/07/29 01:05:51;;;;;;;4.28;1.83;;;16.40;68.50;;;;;;5046338;27;95769;-64
2021/07/29 01:08:20;;;;;;;2.97;1.40;;;16.40;67.90;;;;;;5042024;27;96978;-60
2021/07/29 01:10:50;;;;;;;3.85;1.77;;;16.40;68.00;;;;;;5044017;27;96396;-65
2021/07/29 01:13:23;;;;;;;4.97;2.25;;;16.50;68.20;;;;;;5040779;27;96587;-61
2021/07/29 01:15:54;;;;;;;4.60;2.03;;;16.60;68.20;;;;;;5036018;27;95966;-60
2021/07/29 01:18:24;;;;;;;3.15;1.65;;;16.60;68.30;;;;;;5040344;27;95657;-62
2021/07/29 01:20:54;;;;;;;4.70;1.70;;;16.70;68.40;;;;;;5035640;27;96917;-59
2021/07/29 01:23:25;;;;;;;3.57;1.73;;;16.70;68.50;;;;;;5038269;27;98060;-58
2021/07/29 01:25:56;;;;;;;3.47;1.77;;;16.70;68.70;;;;;;5044954;27;95745;-62
2021/07/29 01:28:27;;;;;;;;;;;16.80;69.00;;;;;;5041150;27;96079;-63
2021/07/29 01:30:58;;;;;;;2.67;1.70;;;16.80;69.10;;;;;;5038851;27;96278;-62
2021/07/29 01:33:29;;;;;;;;;;;16.90;69.30;;;;;;5039212;27;96362;-61
2021/07/29 01:36:01;;;;;;;5.32;1.60;;;17.00;69.40;;;;;;5045209;27;96330;-62
2021/07/29 01:38:31;;;;;;;3.03;1.65;;;17.10;69.50;;;;;;5041385;27;95922;-62
2021/07/29 01:41:02;;;;;;;3.55;1.48;;;17.20;69.50;;;;;;5059913;27;97075;-59
2021/07/29 01:43:33;;;;;;;3.25;1.63;;;17.20;69.40;;;;;;5040511;27;95736;-59
2021/07/29 01:46:04;;;;;;;3.55;1.50;;;17.30;70.20;;;;;;5041378;27;95854;-62
2021/07/29 01:48:35;;;;;;;2.75;1.38;;;17.40;69.20;;;;;;5039730;27;95811;-61
2021/07/29 01:51:05;;;;;;;3.20;1.33;;;17.50;69.40;;;;;;5041260;27;95883;-63
2021/07/29 01:53:36;;;;;;;1.42;1.23;;;17.60;69.40;;;;;;5044189;27;95954;-63
2021/07/29 01:56:10;;;;;;;2.80;1.47;;;17.60;69.20;;;;;;5042841;27;98018;-61
2021/07/29 01:58:40;;;;;;;3.53;1.80;;;17.80;69.10;;;;;;5045767;27;95867;-62
2021/07/29 02:01:19;;;;;;;1.45;1.05;;;17.80;68.80;;;;;;5042020;27;96632;-63
2021/07/29 02:03:50;;;;;;;3.83;1.52;;;17.90;68.50;;;;;;5042642;27;96810;-65
2021/07/29 02:06:20;;;;;;;3.88;1.40;;;17.90;68.40;;;;;;5039076;27;95955;-59
2021/07/29 02:08:51;;;;;;;8.88;2.10;;;18.00;68.50;;;;;;5040240;27;95808;-63
2021/07/29 02:11:27;;;;;;;1.88;1.30;;;18.00;66.60;;;;;;5041369;27;96058;-62
2021/07/29 02:14:00;;;;;;;6.25;2.10;;;17.90;65.80;;;;;;5040887;27;95664;-63
2021/07/29 02:16:33;;;;;;;3.38;1.67;;;17.90;65.90;;;;;;5037643;27;95782;-62
2021/07/29 02:19:04;;;;;;;4.15;1.50;;;17.80;65.90;;;;;;5040999;27;95700;-62
2021/07/29 02:21:34;;;;;;;4.00;1.80;;;17.80;66.10;;;;;;5029972;27;96449;-62
2021/07/29 02:24:06;;;;;;;2.67;1.30;;;17.70;66.00;;;;;;5037412;27;96443;-62
2021/07/29 02:26:37;;;;;;;4.70;1.60;;;17.60;66.20;;;;;;5042531;27;95807;-61
2021/07/29 02:29:07;;;;;;;2.45;1.25;;;17.60;66.30;;;;;;5043002;27;95894;-62
2021/07/29 02:31:38;;;;;;;3.22;1.40;;;17.60;66.30;;;;;;5040491;27;96330;-62
2021/07/29 02:34:08;;;;;;;3.40;1.70;;;17.50;66.40;;;;;;5042827;27;96432;-62
2021/07/29 02:36:38;;;;;;;3.15;1.77;;;17.50;66.80;;;;;;5042170;27;95784;-62
2021/07/29 02:39:08;;;;;;;5.07;1.60;;;17.40;66.70;;;;;;5035633;27;95297;-62
2021/07/29 02:41:38;;;;;;;4.82;2.08;;;17.40;66.70;;;;;;5039225;27;96882;-61
2021/07/29 02:44:08;;;;;;;1.75;1.38;;;17.50;66.70;;;;;;5042016;27;96947;-61
2021/07/29 02:46:40;;;;;;;3.40;1.27;;;17.50;66.80;;;;;;5037569;27;95873;-61
2021/07/29 02:49:11;;;;;;;2.92;1.50;;;17.40;66.80;;;;;;5039924;27;95861;-60
2021/07/29 02:51:41;;;;;;;3.20;1.40;;;17.50;66.80;;;;;;5041436;27;96362;-61
2021/07/29 02:54:13;;;;;;;2.35;1.60;;;17.50;67.40;;;;;;5039006;27;96740;-62
2021/07/29 02:56:44;;;;;;;3.95;1.77;;;17.50;66.80;;;;;;5037646;27;95777;-61
2021/07/29 02:59:14;;;;;;;2.47;1.20;;;17.50;66.80;;;;;;5042881;27;95345;-59
2021/07/29 03:01:47;;;;;;;3.88;1.58;;;17.60;66.70;;;;;;5040555;27;97038;-62
2021/07/29 03:04:20;;;;;;;2.65;1.45;;;17.70;66.70;;;;;;5042192;27;96395;-59
2021/07/29 03:06:53;;;;;;;2.55;1.50;;;17.90;66.60;;;;;;5043078;27;96378;-59
2021/07/29 03:09:24;;;;;;;2.03;1.30;;;18.00;66.50;;;;;;5041099;27;95971;-62
2021/07/29 03:11:55;;;;;;;2.38;1.27;;;18.00;66.30;;;;;;5039124;27;96012;-61
2021/07/29 03:14:26;;;;;;;1.27;1.17;;;18.10;66.30;;;;;;5039675;27;96590;-61
2021/07/29 03:16:58;;;;;;;2.65;1.00;;;18.20;66.30;;;;;;5039611;27;96248;-62
2021/07/29 03:19:29;;;;;;;4.50;1.50;;;18.30;66.60;;;;;;5041494;27;95556;-60
2021/07/29 03:22:00;;;;;;;2.20;1.30;;;18.30;66.20;;;;;;5031364;27;95849;-60
2021/07/29 03:24:37;;;;;;;1.98;1.00;;;18.40;66.20;;;;;;5043161;27;95915;-59
2021/07/29 03:27:08;;;;;;;1.33;1.00;;;18.50;66.60;;;;;;5039712;27;95861;-57
2021/07/29 03:29:39;;;;;;;4.33;1.40;;;18.50;66.40;;;;;;5037412;27;95878;-61
2021/07/29 03:32:11;;;;;;;2.55;1.17;;;18.60;66.40;;;;;;5040172;27;96751;-62
2021/07/29 03:34:41;;;;;;;3.97;1.48;;;18.70;67.30;;;;;;5046120;27;95882;-58
2021/07/29 03:37:11;;;;;;;2.47;1.02;;;18.80;66.70;;;;;;5046467;27;95230;-62
2021/07/29 03:39:41;;;;;;;2.05;1.10;;;18.80;66.40;;;;;;5046711;27;95929;-60
2021/07/29 03:42:11;;;;;;;1.90;0.82;;;18.90;66.40;;;;;;5044120;27;96048;-59
2021/07/29 03:44:41;;;;;;;1.08;0.82;;;19.00;66.30;;;;;;5042221;27;96066;-57
2021/07/29 03:47:11;;;;;;;1.85;0.93;;;19.00;66.30;;;;;;5038615;27;95973;-57
2021/07/29 03:49:42;;;;;;;;;;;19.10;66.10;;;;;;5047177;27;95847;-63
2021/07/29 03:52:12;;;;;;;6.38;1.58;;;19.10;65.40;;;;;;5047300;27;96310;-62
2021/07/29 03:54:44;;;;;;;2.80;1.17;;;19.00;63.00;;;;;;5045242;27;96215;-62
2021/07/29 03:57:15;;;;;;;3.58;1.27;;;18.80;63.60;;;;;;5047005;27;96050;-62
2021/07/29 03:59:46;;;;;;;3.87;1.20;;;18.70;64.10;;;;;;5046186;27;95719;-59
2021/07/29 04:02:17;;;;;;;5.57;1.45;;;18.60;64.30;;;;;;5037164;27;96364;-58
2021/07/29 04:04:48;;;;;;;2.65;1.30;;;18.60;64.40;;;;;;5041360;27;96170;-58
2021/07/29 04:07:20;;;;;;;3.70;1.73;;;18.60;64.50;;;;;;5044549;27;95760;-58
2021/07/29 04:09:53;;;;;;;2.70;1.65;;;18.50;64.50;;;;;;5045326;27;95668;-58
2021/07/29 04:12:25;;;;;;;3.70;1.42;;;18.50;64.60;;;;;;5045546;27;96358;-58
2021/07/29 04:14:56;;;;;;;2.25;1.42;;;18.50;64.60;;;;;;5047140;27;96874;-59
2021/07/29 04:17:27;;;;;;;2.10;1.17;;;18.50;64.80;;;;;;5041887;27;96526;-58
2021/07/29 04:19:59;;;;;;;;;;;18.50;64.80;;;;;;5037388;27;100115;-58
2021/07/29 04:22:30;;;;;;;4.10;1.55;;;18.50;64.90;;;;;;5041541;27;96879;-58
2021/07/29 04:25:00;;;;;;;1.88;1.50;;;18.50;64.90;;;;;;5045438;27;97832;-58
2021/07/29 04:27:32;;;;;;;3.97;1.25;;;18.50;65.00;;;;;;5044807;27;96265;-60
2021/07/29 04:30:03;;;;;;;6.32;1.75;;;18.50;65.10;;;;;;5045833;27;95222;-65
2021/07/29 04:32:36;;;;;;;3.28;1.20;;;18.50;65.10;;;;;;5042731;27;96059;-62
2021/07/29 04:35:06;;;;;;;2.20;1.10;;;18.60;65.20;;;;;;5039840;27;96010;-61
2021/07/29 04:37:36;;;;;;;1.10;0.97;;;18.60;65.10;;;;;;5042042;27;95871;-62
2021/07/29 04:40:07;;;;;;;3.55;1.30;;;18.60;65.10;;;;;;5046458;27;95834;-66
2021/07/29 04:42:36;;;;;;;4.73;1.30;;;18.60;65.10;;;;;;5045955;27;96162;-62
2021/07/29 04:45:08;;;;;;;3.40;1.60;;;18.60;65.10;;;;;;5043647;27;96290;-58
2021/07/29 04:47:39;;;;;;;3.35;1.63;;;18.70;65.20;;;;;;5043476;27;96313;-60
2021/07/29 04:50:11;;;;;;;3.90;1.30;;;18.70;65.20;;;;;;5044428;27;95995;-58
2021/07/29 04:52:41;;;;;;;3.20;1.33;;;18.70;65.20;;;;;;5039738;27;96603;-58
2021/07/29 04:55:11;;;;;;;3.70;1.60;;;18.70;65.20;;;;;;5042485;27;96440;-61
2021/07/29 04:57:42;;;;;;;;;;;18.70;65.30;;;;;;5045750;27;95707;-61
2021/07/29 05:00:13;;;;;;;3.50;1.25;;;18.70;65.20;;;;;;5045760;27;95820;-59
2021/07/29 05:02:45;;;;;;;2.60;1.30;;;18.70;65.20;;;;;;5042306;27;96374;-60
2021/07/29 05:05:16;;;;;;;2.83;1.27;;;18.70;65.30;;;;;;5043703;27;95868;-57
2021/07/29 05:07:46;;;;;;;4.68;1.48;;;18.70;65.20;;;;;;5044250;27;96051;-62
2021/07/29 05:10:17;;;;;;;4.68;1.17;;;18.80;65.30;;;;;;5040510;27;96117;-61
2021/07/29 05:12:47;;;;;;;;;;;18.80;65.30;;;;;;5044327;27;96770;-63
2021/07/29 05:15:19;;;;;;;2.50;1.13;;;18.80;65.20;;;;;;5042471;27;96762;-60
2021/07/29 05:17:55;;;;;;;3.50;1.27;;;18.80;65.10;;;;;;5043054;27;95899;-63
2021/07/29 05:20:25;;;;;;;2.65;1.40;;;18.90;65.10;;;;;;5033788;27;97613;-61
2021/07/29 05:22:56;;;;;;;2.10;1.40;;;18.90;65.00;;;;;;5034696;27;96029;-62
2021/07/29 05:25:32;;;;;;;4.65;1.92;;;18.90;64.90;;;;;;5036874;27;95820;-63
2021/07/29 05:28:04;;;;;;;3.85;1.05;;;19.00;64.80;;;;;;5037363;27;95682;-63
2021/07/29 05:30:36;;;;;;;;;;;19.00;64.70;;;;;;5035019;27;95850;-63
2021/07/29 05:33:07;;;;;;;3.35;1.58;;;19.00;64.70;;;;;;5042702;27;98369;-62
2021/07/29 05:35:37;;;;;;;2.78;1.23;;;19.10;64.70;;;;;;5040040;27;95948;-60
2021/07/29 05:38:07;;;;;;;4.72;1.42;;;19.10;64.60;;;;;;5040449;27;96496;-61
2021/07/29 05:40:38;;;;;;;2.75;0.95;;;19.10;64.50;;;;;;5042429;27;95345;-64
2021/07/29 05:43:09;;;;;;;2.95;1.15;;;19.10;64.60;;;;;;5038298;27;98323;-62
2021/07/29 05:45:42;;;;;;;2.67;1.23;;;19.10;64.60;;;;;;5038383;27;96123;-62
2021/07/29 05:48:14;;;;;;;2.67;1.25;;;19.20;64.70;;;;;;5042693;27;95757;-61
2021/07/29 05:50:46;;;;;;;3.08;1.40;;;19.20;64.80;;;;;;5041119;27;96473;-58
2021/07/29 05:53:16;;;;;;;2.35;1.17;;;19.10;64.80;;;;;;5043265;27;96990;-58
2021/07/29 05:55:48;;;;;;;1.65;1.30;;;19.10;64.90;;;;;;5040961;27;95810;-62
2021/07/29 05:58:19;;;;;;;2.28;1.10;;;19.20;64.90;;;;;;5040065;27;95807;-61
2021/07/29 06:00:50;;;;;;;3.72;1.27;;;19.20;64.90;;;;;;5036334;27;95888;-59
2021/07/29 06:03:22;;;;;;;5.80;1.98;;;19.20;64.80;;;;;;5043044;27;96081;-61
2021/07/29 06:05:55;;;;;;;2.75;1.10;;;19.20;64.80;;;;;;5043454;27;95859;-60
2021/07/29 06:08:25;;;;;;;2.13;1.42;;;19.10;65.40;;;;;;5043369;27;96395;-61
2021/07/29 06:10:56;;;;;;;2.55;1.33;;;19.10;64.80;;;;;;5044266;27;95780;-59
2021/07/29 06:13:26;;;;;;;3.83;1.73;;;19.10;64.80;;;;;;5041725;27;96879;-57
2021/07/29 06:16:03;;;;;;;4.63;1.67;;;19.10;64.80;;;;;;5033816;27;96564;-58
2021/07/29 06:18:37;;;;;;;1.95;1.60;;;19.20;64.70;;;;;;5041755;27;96396;-58
2021/07/29 06:21:07;;;;;;;4.70;1.63;;;19.10;64.80;;;;;;5034879;27;98609;-58
2021/07/29 06:23:38;;;;;;;2.70;1.38;;;19.10;65.00;;;;;;5036683;27;96768;-58
2021/07/29 06:26:11;;;;;;;5.65;1.95;;;19.00;65.00;;;;;;5039780;27;95431;-57
2021/07/29 06:28:42;;;;;;;3.80;1.90;;;19.00;64.90;;;;;;5039751;27;95604;-57
2021/07/29 06:31:13;;;;;;;2.03;1.52;;;19.00;65.00;;;;;;5036845;27;96520;-55
2021/07/29 06:33:44;;;;;;;;;;;19.00;65.10;;;;;;5034700;27;96298;-58
2021/07/29 06:36:14;;;;;;;3.75;1.83;;;18.90;65.10;;;;;;5040014;27;96355;-55
2021/07/29 06:38:44;;;;;;;3.00;1.70;;;18.90;65.20;;;;;;5039484;27;96477;-57
2021/07/29 06:41:14;;;;;;;3.65;1.80;;;18.80;65.10;;;;;;5039771;27;95901;-57
2021/07/29 06:43:45;;;;;;;3.25;1.98;;;18.80;65.30;;;;;;5040879;27;97074;-57
2021/07/29 06:46:17;;;;;;;4.45;2.05;;;18.70;65.40;;;;;;5031414;27;96445;-60
2021/07/29 06:48:49;;;;;;;2.88;1.60;;;18.70;65.40;;;;;;5018001;28;96519;-59
2021/07/29 06:51:19;;;;;;;2.75;2.00;;;18.70;65.50;;;;;;5015057;28;96042;-56
2021/07/29 06:53:50;;;;;;;2.55;1.83;;;18.60;65.60;;;;;;5016621;27;97600;-62
2021/07/29 06:56:20;;;;;;;3.03;1.60;;;18.60;65.80;;;;;;5017623;27;96435;-61
2021/07/29 06:58:50;;;;;;;7.20;2.22;;;18.60;65.70;;;;;;5016680;28;95509;-58
2021/07/29 07:01:20;;;;;;;2.40;1.65;;;18.70;65.80;;;;;;5013866;27;96039;-60
2021/07/29 07:03:50;;;;;;;3.35;1.58;;;18.70;65.70;;;;;;5021070;28;96192;-64
2021/07/29 07:06:22;;;;;;;2.67;1.60;;;18.80;65.80;;;;;;5015164;27;96070;-63
2021/07/29 07:08:54;;;;;;;3.28;1.75;;;18.90;65.90;;;;;;5019088;28;95671;-62
2021/07/29 07:11:26;;;;;;;2.90;1.88;;;18.90;65.90;;;;;;5021704;28;95374;-58
2021/07/29 07:13:58;;;;;;;2.85;1.20;;;19.00;65.90;;;;;;5021952;27;96582;-57
2021/07/29 07:16:31;;;;;;;1.67;1.33;;;19.00;65.90;;;;;;5026960;27;95992;-57
2021/07/29 07:19:07;;;;;;;1.70;1.15;;;19.00;65.90;;;;;;5040435;27;95858;-60
2021/07/29 07:21:38;;;;;;;3.28;1.50;;;19.10;65.90;;;;;;5025701;27;95843;-63
2021/07/29 07:24:11;;;;;;;3.60;1.73;;;19.10;65.90;;;;;;5035684;27;96120;-62
2021/07/29 07:26:43;;;;;;;2.08;1.33;;;19.10;65.90;;;;;;5042167;27;96488;-57
2021/07/29 07:29:13;;;;;;;1.55;1.10;;;19.10;65.90;;;;;;5043749;27;95792;-60
2021/07/29 07:31:43;;;;;;;3.33;1.70;;;19.20;66.00;;;;;;5039458;27;98829;-62
2021/07/29 07:34:13;;;;;;;3.28;1.38;;;19.20;66.00;;;;;;5043031;27;96420;-60
2021/07/29 07:36:43;;;;;;;2.20;1.40;;;19.10;64.80;;;;;;5041606;27;96709;-62
2021/07/29 07:39:13;;;;;;;3.35;1.45;;;19.00;64.80;;;;;;5038022;27;96025;-58
2021/07/29 07:41:46;;;;;;;2.90;1.30;;;19.00;65.00;;;;;;5037145;27;95896;-57
2021/07/29 07:44:17;;;;;;;2.53;1.45;;;18.90;65.00;;;;;;5041883;27;97897;-57
2021/07/29 07:46:48;;;;;;;4.28;1.63;;;18.80;65.10;;;;;;5037144;27;98602;-57
2021/07/29 07:49:19;;;;;;;;;;;18.70;65.20;;;;;;5044038;27;95680;-56
2021/07/29 07:51:48;;;;;;;3.65;1.58;;;18.70;65.20;;;;;;5044436;27;95947;-57
2021/07/29 07:54:18;;;;;;;3.13;1.60;;;18.60;65.40;;;;;;5039917;27;96356;-57
2021/07/29 07:56:48;;;;;;;3.03;2.00;;;18.60;65.40;;;;;;5037057;27;96382;-60
2021/07/29 07:59:18;;;;;;;3.70;1.75;;;18.50;65.40;;;;;;5040262;27;95781;-58
2021/07/29 08:01:48;;;;;;;3.30;1.30;;;18.50;65.40;;;;;;5039875;27;95960;-58
2021/07/29 08:04:18;;;;;;;3.22;1.80;;;18.50;65.60;;;;;;5042379;27;96769;-58
2021/07/29 08:06:50;;;;;;;3.70;1.97;;;18.40;65.70;;;;;;5040363;27;95807;-56
2021/07/29 08:09:22;;;;;;;3.35;1.75;;;18.30;65.70;;;;;;5041630;27;95679;-58
2021/07/29 08:11:53;;;;;;;5.72;1.90;;;18.30;65.80;;;;;;5037105;27;95838;-57
2021/07/29 08:14:25;;;;;;;4.55;1.35;;;18.30;66.00;;;;;;5037272;27;97111;-58
2021/07/29 08:16:58;;;;;;;3.63;1.75;;;18.20;66.10;;;;;;5036193;27;99474;-57
2021/07/29 08:19:28;;;;;;;2.42;1.38;;;18.20;66.10;;;;;;5041478;27;95998;-58
2021/07/29 08:22:00;;;;;;;3.42;1.77;;;18.20;66.00;;;;;;5030877;27;95967;-58
2021/07/29 08:24:33;;;;;;;2.15;1.38;;;18.20;66.20;;;;;;5046659;27;96483;-58
2021/07/29 08:27:04;;;;;;;3.70;1.42;;;18.20;66.40;;;;;;5045154;27;96470;-58
2021/07/29 08:29:35;;;;;;;4.00;1.95;;;18.20;66.50;;;;;;5040169;27;95828;-58
2021/07/29 08:32:08;;;;;;;3.03;1.65;;;18.20;66.80;;;;;;5040843;27;95925;-59
2021/07/29 08:34:39;;;;;;;3.42;1.38;;;18.10;67.10;;;;;;5045464;27;98217;-58
2021/07/29 08:37:11;;;;;;;1.80;1.23;;;18.10;67.20;;;;;;5044084;27;95803;-58
2021/07/29 08:39:42;;;;;;;4.03;1.80;;;18.00;67.20;;;;;;5041703;27;95755;-58
2021/07/29 08:42:14;;;;;;;2.85;1.65;;;18.00;67.30;;;;;;5043290;27;95711;-57
2021/07/29 08:44:45;;;;;;;2.92;1.77;;;18.00;67.30;;;;;;5040660;27;96560;-57
2021/07/29 08:47:26;;;;;;;2.15;1.20;;;18.00;67.20;;;;;;5032911;27;96080;-58
2021/07/29 08:50:05;;;;;;;4.32;2.67;;;18.00;67.20;;;;;;5044394;27;95271;-57
2021/07/29 08:52:39;;;;;;;4.70;2.20;;;18.00;67.30;;;;;;5043916;27;96025;-57
2021/07/29 08:55:10;;;;;;;5.68;3.22;;;18.00;67.60;;;;;;5046155;27;96525;-57
2021/07/29 08:57:42;;;;;;;5.57;3.00;;;18.00;67.70;;;;;;5044321;27;96600;-56
2021/07/29 09:00:13;;;;;;;4.75;3.35;;;18.00;67.50;;;;;;5041679;27;97994;-57
2021/07/29 09:02:44;;;;;;;6.70;4.78;;;17.90;67.50;;;;;;5014624;28;95811;-57
2021/07/29 09:05:17;;;;;;;11.93;6.72;;;17.90;67.70;;;;;;5015926;28;97262;-57
2021/07/29 09:08:07;;;;;;;15.43;8.52;;;17.90;67.80;;;;;;5017371;28;95600;-57
2021/07/29 09:10:42;;;;;;;20.20;13.98;;;17.90;68.00;;;;;;5017915;28;95973;-57
2021/07/29 09:13:16;;;;;;;27.00;20.42;;;17.80;68.00;;;;;;5016903;28;95758;-57
2021/07/29 09:16:08;;;;;;;41.70;26.52;;;17.80;68.00;;;;;;5013618;27;97007;-57
2021/07/29 09:18:39;;;;;;;41.78;30.38;;;17.90;68.20;;;;;;5013502;28;96743;-58
2021/07/29 09:21:14;;;;;;;48.00;36.22;;;17.80;68.10;;;;;;5005468;28;96665;-56
2021/07/29 09:23:45;;;;;;;55.08;41.00;;;17.80;68.20;;;;;;5014742;28;95957;-57
2021/07/29 09:26:15;;;;;;;71.00;49.65;;;17.80;68.20;;;;;;5015465;27;98588;-56
2021/07/29 09:28:46;;;;;;;;;;;17.80;68.30;;;;;;5014982;27;96533;-57
2021/07/29 09:31:21;;;;;;;76.07;54.97;;;17.70;68.30;;;;;;5017067;28;95786;-58
2021/07/29 09:34:00;;;;;;;74.93;54.72;;;17.70;68.40;;;;;;5014861;28;96081;-56
2021/07/29 09:36:32;;;;;;;77.88;58.40;;;17.70;68.40;;;;;;5014302;28;96810;-59
2021/07/29 09:39:20;;;;;;;;;;;17.70;68.50;;;;;;5016356;27;96550;-57
2021/07/29 09:42:13;;;;;;;76.30;55.90;;;17.70;68.60;;;;;;5016910;27;95833;-57
2021/07/29 09:44:46;;;;;;;67.78;52.38;;;17.60;68.80;;;;;;5016081;28;95896;-59
2021/07/29 09:47:19;;;;;;;76.15;52.50;;;17.60;68.80;;;;;;5010636;27;96946;-57
2021/07/29 09:50:21;;;;;;;69.68;51.13;;;17.60;68.30;;;;;;4992072;27;97796;-62
2021/07/29 09:52:54;;;;;;;68.80;52.13;;;17.50;69.00;;;;;;4977483;28;97519;-62
2021/07/29 09:55:30;;;;;;;64.78;51.08;;;17.30;69.30;;;;;;4990596;28;95766;-62
2021/07/29 09:58:01;;;;;;;67.38;51.05;;;17.20;69.30;;;;;;5002484;28;96826;-63
2021/07/29 10:00:36;;;;;;;69.93;50.00;;;17.20;69.40;;;;;;4992447;27;96413;-63
2021/07/29 10:03:08;;;;;;;64.05;46.85;;;17.20;69.60;;;;;;4954222;28;95314;-64
2021/07/29 10:05:45;;;;;;;67.47;47.47;;;17.20;69.60;;;;;;4951842;28;96073;-63
2021/07/29 10:08:47;;;;;;;58.25;45.20;;;17.20;69.70;;;;;;4959379;28;97248;-64
2021/07/29 10:11:22;;;;;;;58.67;45.33;;;17.20;69.70;;;;;;4963376;28;95693;-67
2021/07/29 10:13:53;;;;;;;61.17;45.65;;;17.20;69.90;;;;;;4966401;28;95356;-67
2021/07/29 10:16:52;;;;;;;55.92;43.10;;;17.10;70.00;;;;;;4961356;28;96014;-71
2021/07/29 10:19:24;;;;;;;59.60;42.50;;;17.00;69.90;;;;;;4963668;28;95833;-66
2021/07/29 10:21:54;;;;;;;52.78;41.08;;;17.10;69.90;;;;;;4968265;28;95748;-76
2021/07/29 10:24:24;;;;;;;58.42;41.90;;;17.10;69.90;;;;;;4970597;28;95859;-75
2021/07/29 10:27:02;;;;;;;53.58;39.95;;;17.00;69.90;;;;;;4972732;28;95330;-76
2021/07/29 10:29:31;;;;;;;50.50;37.08;;;17.00;69.90;;;;;;4972559;28;96013;-75
2021/07/29 10:32:09;;;;;;;48.63;35.92;;;17.00;69.90;;;;;;4965568;28;96115;-75
2021/07/29 10:34:40;;;;;;;49.72;37.50;;;17.00;70.00;;;;;;4973115;28;95887;-76
2021/07/29 10:37:13;;;;;;;46.75;35.15;;;17.00;70.00;;;;;;4977960;28;95816;-76
2021/07/29 10:40:00;;;;;;;43.47;34.72;;;17.00;69.90;;;;;;4970802;28;95911;-75
2021/07/29 10:42:32;;;;;;;47.17;34.13;;;17.10;69.90;;;;;;4951586;28;95766;-69
2021/07/29 10:45:03;;;;;;;44.25;33.08;;;17.10;70.20;;;;;;4965155;28;95507;-75
2021/07/29 10:47:42;;;;;;;39.38;30.77;;;17.00;70.40;;;;;;4987008;28;95525;-76
2021/07/29 10:50:14;;;;;;;41.50;30.75;;;16.90;70.60;;;;;;4967784;28;95876;-75
2021/07/29 10:52:45;;;;;;;;;;;16.80;70.80;;;;;;4967411;28;95499;-74
2021/07/29 10:55:17;;;;;;;43.40;31.67;;;16.70;70.80;;;;;;4967198;28;95813;-75
2021/07/29 10:58:01;;;;;;;40.75;29.02;;;16.70;71.10;;;;;;4967644;28;95480;-73
2021/07/29 11:00:31;;;;;;;37.13;29.73;;;16.60;71.10;;;;;;4948952;28;95846;-75
2021/07/29 11:03:09;;;;;;;40.17;29.42;;;16.50;71.10;;;;;;4960115;28;95488;-76
2021/07/29 11:05:41;;;;;;;44.83;28.52;;;16.60;71.20;;;;;;4951170;28;95269;-74
2021/07/29 11:08:11;;;;;;;37.53;28.92;;;16.50;71.10;;;;;;4953765;28;95276;-75
2021/07/29 11:10:41;;;;;;;35.03;27.70;;;16.50;71.20;;;;;;4952708;28;95928;-75
2021/07/29 11:13:14;;;;;;;35.70;27.33;;;16.40;71.10;;;;;;4950713;28;96229;-74
2021/07/29 11:15:46;;;;;;;36.10;26.88;;;16.40;71.20;;;;;;4951026;28;95982;-69
2021/07/29 11:18:18;;;;;;;;;;;16.30;71.30;;;;;;4947505;28;95756;-75
2021/07/29 11:20:48;;;;;;;35.70;26.25;;;16.30;71.30;;;;;;4955774;28;96295;-75
2021/07/29 11:23:37;;;;;;;31.60;25.83;;;16.30;71.30;;;;;;4953170;28;95233;-75
2021/07/29 11:26:08;;;;;;;27.60;22.23;;;16.30;71.30;;;;;;4949774;28;95771;-74
2021/07/29 11:28:40;;;;;;;29.42;23.92;;;16.30;71.40;;;;;;4953992;28;96360;-75
2021/07/29 11:31:20;;;;;;;28.73;22.60;;;16.30;71.20;;;;;;4950555;28;96205;-75
2021/07/29 11:33:52;;;;;;;24.27;20.92;;;16.40;71.70;;;;;;4958144;28;95230;-75
2021/07/29 11:36:24;;;;;;;26.70;21.05;;;16.40;70.80;;;;;;4948243;28;95743;-75
2021/07/29 11:38:58;;;;;;;27.05;21.27;;;16.40;70.70;;;;;;4943887;28;95968;-75
2021/07/29 11:41:30;;;;;;;24.23;20.35;;;16.40;70.70;;;;;;4945297;28;95943;-75
2021/07/29 11:44:03;;;;;;;25.30;18.88;;;16.40;70.60;;;;;;4966900;28;96103;-74
2021/07/29 11:46:35;;;;;;;27.75;19.92;;;16.40;70.50;;;;;;4948664;28;95850;-75
2021/07/29 11:49:07;;;;;;;25.67;18.33;;;16.40;70.50;;;;;;4953419;28;98390;-78
2021/07/29 11:51:38;;;;;;;25.30;19.55;;;16.40;70.50;;;;;;4955125;28;96190;-75
2021/07/29 11:54:24;;;;;;;24.15;18.20;;;16.40;70.40;;;;;;4943048;28;95370;-75
2021/07/29 11:56:54;;;;;;;25.73;18.90;;;16.40;70.30;;;;;;4967338;28;95704;-74
2021/07/29 11:59:25;;;;;;;25.27;17.95;;;16.30;70.30;;;;;;4955021;28;95719;-76
2021/07/29 12:01:58;;;;;;;25.58;18.98;;;16.30;70.30;;;;;;4948570;28;95533;-74
2021/07/29 12:04:30;;;;;;;25.25;17.27;;;16.30;70.20;;;;;;4953759;28;95226;-75
2021/07/29 12:07:03;;;;;;;26.80;17.35;;;16.30;70.20;;;;;;4951205;28;96676;-76
2021/07/29 12:09:35;;;;;;;22.77;17.50;;;16.40;70.20;;;;;;4949523;28;96434;-75
2021/07/29 12:12:07;;;;;;;22.27;18.15;;;16.40;70.10;;;;;;4950138;28;95852;-76
2021/07/29 12:14:37;;;;;;;19.85;15.30;;;16.30;70.00;;;;;;4947316;28;95787;-76
2021/07/29 12:17:22;;;;;;;19.98;14.88;;;16.30;70.00;;;;;;4941135;28;96337;-76
2021/07/29 12:20:03;;;;;;;23.20;15.00;;;16.30;70.00;;;;;;4956512;28;95842;-76
2021/07/29 12:22:36;;;;;;;19.05;14.20;;;16.30;70.00;;;;;;4961014;28;95956;-75
2021/07/29 12:25:09;;;;;;;21.98;15.45;;;16.30;70.00;;;;;;4949393;28;95844;-75
2021/07/29 12:27:46;;;;;;;18.33;15.23;;;16.30;70.10;;;;;;4949904;28;95170;-70
2021/07/29 12:30:42;;;;;;;20.15;14.10;;;16.20;69.90;;;;;;4948467;28;95724;-77
2021/07/29 12:33:17;;;;;;;16.45;12.82;;;16.20;69.90;;;;;;4962111;28;102069;-76
2021/07/29 12:36:04;;;;;;;18.20;12.38;;;16.20;69.90;;;;;;4956518;28;95492;-76
2021/07/29 12:38:37;;;;;;;17.30;12.55;;;16.20;69.90;;;;;;4948087;28;95756;-77
2021/07/29 12:41:09;;;;;;;19.45;14.27;;;16.20;69.90;;;;;;4949226;28;95496;-76
2021/07/29 12:43:40;;;;;;;17.65;11.90;;;16.20;69.90;;;;;;4943830;28;95604;-74
2021/07/29 12:46:20;;;;;;;15.50;12.20;;;16.20;70.00;;;;;;4944410;28;95226;-76
2021/07/29 12:48:56;;;;;;;13.75;10.30;;;16.20;70.00;;;;;;4952226;28;95181;-74
2021/07/29 12:51:49;;;;;;;15.00;12.52;;;16.20;69.90;;;;;;4948638;28;95705;-74
2021/07/29 12:54:23;;;;;;;16.05;11.18;;;16.20;69.90;;;;;;4941439;28;95878;-76
2021/07/29 12:57:08;;;;;;;15.07;11.07;;;16.10;69.90;;;;;;4951063;28;97098;-77
2021/07/29 12:59:37;;;;;;;14.57;10.70;;;16.10;69.80;;;;;;4948501;28;95864;-75
2021/07/29 13:02:09;;;;;;;15.20;10.48;;;16.10;69.80;;;;;;4943765;28;95845;-77
2021/07/29 13:04:40;;;;;;;;;;;16.10;69.80;;;;;;4954593;28;95840;-77
2021/07/29 13:07:11;;;;;;;11.57;8.02;;;16.10;69.90;;;;;;4956748;28;95711;-74
2021/07/29 13:09:42;;;;;;;9.75;7.60;;;16.10;70.00;;;;;;4961191;28;95916;-74
2021/07/29 13:12:12;;;;;;;11.38;6.70;;;16.10;70.20;;;;;;4957022;28;95345;-74
2021/07/29 13:14:42;;;;;;;10.48;6.97;;;16.20;70.30;;;;;;4957132;28;95378;-75
2021/07/29 13:17:12;;;;;;;9.68;7.38;;;16.20;70.30;;;;;;4953943;28;95724;-75